Time;durP1;ratioP1;P1;durP2;ratioP2;P2;SDS_P1;SDS_P2;PMS_P1;PMS_P2;Temp;Humidity;BMP_temperature;BMP_pressure;BME280_temperature;BME280_humidity;BME280_pressure;Samples;Min_cycle;Max_cycle;Signal;HPM_P1;HPM_P2
2021/10/06 00:01:56;;;;;;;1.27;1.00;;;;;;;;;;5010949;28;20207;-80
2021/10/06 00:04:23;;;;;;;1.50;1.02;;;;;;;;;;5016088;28;20206;-80
2021/10/06 00:06:51;;;;;;;0.82;0.82;;;;;;;;;;5015127;28;20219;-81
2021/10/06 00:09:20;;;;;;;0.68;0.60;;;;;;;;;;5016413;28;20210;-80
2021/10/06 00:11:47;;;;;;;0.77;0.70;;;;;;;;;;5015865;28;20215;-79
2021/10/06 00:14:15;;;;;;;0.80;0.80;;;;;;;;;;5015657;28;20207;-80
2021/10/06 00:16:42;;;;;;;1.58;0.75;;;;;;;;;;5016162;28;20241;-81
2021/10/06 00:19:10;;;;;;;0.45;0.45;;;;;;;;;;5016342;28;20203;-81
2021/10/06 00:21:38;;;;;;;0.65;0.65;;;;;;;;;;5016746;28;20199;-81
2021/10/06 00:24:06;;;;;;;1.35;0.70;;;;;;;;;;5016086;28;20182;-80
2021/10/06 00:26:35;;;;;;;0.60;0.60;;;;;;;;;;5016110;28;20203;-81
2021/10/06 00:29:02;;;;;;;0.60;0.60;;;;;;;;;;5016116;28;20207;-81
2021/10/06 00:31:30;;;;;;;3.20;1.23;;;;;;;;;;5016297;28;20199;-80
2021/10/06 00:33:57;;;;;;;0.73;0.73;;;;;;;;;;5015636;28;20203;-80
2021/10/06 00:36:25;;;;;;;0.90;0.70;;;;;;;;;;5015750;28;20195;-79
2021/10/06 00:38:52;;;;;;;1.30;0.80;;;;;;;;;;5015337;28;20203;-80
2021/10/06 00:41:20;;;;;;;0.55;0.55;;;;;;;;;;5015536;28;20214;-81
2021/10/06 00:43:49;;;;;;;0.50;0.50;;;;;;;;;;5015561;28;20576;-80
2021/10/06 00:46:16;;;;;;;0.82;0.60;;;;;;;;;;5015609;28;20199;-80
2021/10/06 00:48:44;;;;;;;0.65;0.65;;;;;;;;;;5015766;28;20211;-79
2021/10/06 00:51:13;;;;;;;0.73;0.73;;;;;;;;;;5015347;28;20203;-81
2021/10/06 00:53:41;;;;;;;1.80;0.73;;;;;;;;;;5015330;28;20669;-81
2021/10/06 00:56:08;;;;;;;1.60;0.85;;;;;;;;;;5015497;28;20234;-80
2021/10/06 00:58:36;;;;;;;0.55;0.55;;;;;;;;;;5015321;28;20230;-79
2021/10/06 01:01:06;;;;;;;0.63;0.63;;;;;;;;;;5015485;28;20203;-79
2021/10/06 01:03:33;;;;;;;0.50;0.50;;;;;;;;;;5016111;28;20198;-80
2021/10/06 01:06:01;;;;;;;0.57;0.57;;;;;;;;;;5016007;28;20180;-80
2021/10/06 01:08:28;;;;;;;1.23;0.73;;;;;;;;;;5014808;28;20223;-80
2021/10/06 01:10:56;;;;;;;1.38;0.82;;;;;;;;;;5015619;28;20203;-81
2021/10/06 01:13:24;;;;;;;1.38;0.73;;;;;;;;;;5015497;28;20708;-79
2021/10/06 01:15:53;;;;;;;0.60;0.60;;;;;;;;;;5015059;28;20230;-81
2021/10/06 01:18:22;;;;;;;1.20;0.77;;;;;;;;;;5015177;28;20592;-81
2021/10/06 01:20:49;;;;;;;0.65;0.65;;;;;;;;;;5015037;28;20665;-80
2021/10/06 01:23:19;;;;;;;1.05;0.95;;;;;;;;;;5015745;28;20235;-81
2021/10/06 01:25:47;;;;;;;0.60;0.60;;;;;;;;;;5015222;28;20207;-80
2021/10/06 01:28:15;;;;;;;0.50;0.50;;;;;;;;;;5015517;28;20234;-80
2021/10/06 01:30:42;;;;;;;2.53;0.80;;;;;;;;;;5015370;28;20209;-81
2021/10/06 01:33:10;;;;;;;2.00;0.98;;;;;;;;;;5015356;28;20199;-81
2021/10/06 01:35:37;;;;;;;0.65;0.65;;;;;;;;;;5015216;28;20770;-80
2021/10/06 01:38:05;;;;;;;1.13;0.90;;;;;;;;;;5015609;28;20726;-79
2021/10/06 01:40:33;;;;;;;0.70;0.70;;;;;;;;;;5015382;28;20579;-81
2021/10/06 01:43:01;;;;;;;1.45;1.13;;;;;;;;;;5015651;28;20203;-81
2021/10/06 01:45:31;;;;;;;0.60;0.60;;;;;;;;;;5015096;28;20212;-80
2021/10/06 01:48:05;;;;;;;0.93;0.80;;;;;;;;;;5015512;28;20222;-81
2021/10/06 01:50:33;;;;;;;0.70;0.70;;;;;;;;;;5015660;28;20665;-80
2021/10/06 01:53:01;;;;;;;0.85;0.80;;;;;;;;;;5015470;28;20184;-81
2021/10/06 01:55:30;;;;;;;0.77;0.75;;;;;;;;;;5015742;28;20241;-81
2021/10/06 01:58:02;;;;;;;1.20;1.10;;;;;;;;;;5015293;28;20227;-80
2021/10/06 02:00:30;;;;;;;1.83;1.00;;;;;;;;;;5015323;28;20206;-80
2021/10/06 02:02:57;;;;;;;0.85;0.85;;;;;;;;;;5015208;28;20209;-80
2021/10/06 02:05:26;;;;;;;0.82;0.80;;;;;;;;;;5013959;28;20203;-79
2021/10/06 02:07:53;;;;;;;1.40;1.00;;;;;;;;;;5015248;28;20229;-80
2021/10/06 02:10:21;;;;;;;0.73;0.73;;;;;;;;;;5014989;28;20203;-81
2021/10/06 02:12:48;;;;;;;1.10;0.95;;;;;;;;;;5015380;28;20209;-80
2021/10/06 02:15:17;;;;;;;0.80;0.80;;;;;;;;;;5014848;28;20265;-81
2021/10/06 02:17:45;;;;;;;0.70;0.70;;;;;;;;;;5015283;28;20246;-80
2021/10/06 02:20:12;;;;;;;0.70;0.70;;;;;;;;;;5015689;28;20195;-80
2021/10/06 02:22:40;;;;;;;1.17;1.08;;;;;;;;;;5015414;28;20187;-80
2021/10/06 02:25:09;;;;;;;1.00;0.90;;;;;;;;;;5015140;28;20215;-80
2021/10/06 02:27:36;;;;;;;0.75;0.75;;;;;;;;;;5015116;28;20242;-79
2021/10/06 02:30:07;;;;;;;0.90;0.65;;;;;;;;;;5014798;28;20670;-80
2021/10/06 02:32:36;;;;;;;0.70;0.70;;;;;;;;;;5015343;28;20207;-79
2021/10/06 02:35:04;;;;;;;0.93;0.70;;;;;;;;;;5014894;28;20217;-80
2021/10/06 02:37:32;;;;;;;0.68;0.68;;;;;;;;;;5014605;28;20231;-80
2021/10/06 02:39:59;;;;;;;1.65;0.70;;;;;;;;;;5014545;28;20210;-80
2021/10/06 02:42:27;;;;;;;0.98;0.98;;;;;;;;;;5014401;28;20211;-80
2021/10/06 02:44:55;;;;;;;1.00;1.00;;;;;;;;;;5015202;28;20183;-80
2021/10/06 02:47:22;;;;;;;0.70;0.70;;;;;;;;;;5014900;28;20736;-81
2021/10/06 02:49:51;;;;;;;1.50;0.70;;;;;;;;;;5015655;28;20211;-80
2021/10/06 02:52:18;;;;;;;0.70;0.70;;;;;;;;;;5015273;28;20203;-80
2021/10/06 02:54:46;;;;;;;1.70;0.88;;;;;;;;;;5014558;28;20572;-81
2021/10/06 02:57:13;;;;;;;1.10;1.00;;;;;;;;;;5015860;28;20227;-81
2021/10/06 02:59:41;;;;;;;0.98;0.90;;;;;;;;;;5015045;28;20202;-80
2021/10/06 03:02:08;;;;;;;1.50;0.80;;;;;;;;;;5014706;28;20582;-81
2021/10/06 03:04:36;;;;;;;1.00;0.88;;;;;;;;;;5018209;28;20219;-80
2021/10/06 03:07:04;;;;;;;0.90;0.90;;;;;;;;;;5017830;28;20219;-80
2021/10/06 03:09:32;;;;;;;0.90;0.90;;;;;;;;;;5017980;28;20199;-79
2021/10/06 03:11:59;;;;;;;0.73;0.73;;;;;;;;;;5018380;28;20202;-82
2021/10/06 03:14:27;;;;;;;1.30;0.90;;;;;;;;;;5018597;28;20262;-79
2021/10/06 03:16:54;;;;;;;0.95;0.95;;;;;;;;;;5017979;28;20239;-81
2021/10/06 03:19:22;;;;;;;0.88;0.88;;;;;;;;;;5017880;28;20214;-80
2021/10/06 03:21:49;;;;;;;2.75;1.00;;;;;;;;;;5018569;28;20212;-80
2021/10/06 03:24:19;;;;;;;1.10;1.02;;;;;;;;;;5018780;28;20210;-81
2021/10/06 03:26:46;;;;;;;2.38;1.20;;;;;;;;;;5019379;28;20219;-80
2021/10/06 03:29:14;;;;;;;1.92;1.00;;;;;;;;;;5017554;28;20210;-80
2021/10/06 03:31:42;;;;;;;1.75;0.80;;;;;;;;;;5017099;28;20211;-80
2021/10/06 03:34:09;;;;;;;0.80;0.80;;;;;;;;;;5016938;28;20203;-80
2021/10/06 03:36:37;;;;;;;1.35;0.80;;;;;;;;;;5016805;28;20227;-80
2021/10/06 03:39:05;;;;;;;0.70;0.70;;;;;;;;;;5016062;28;20214;-80
2021/10/06 03:41:33;;;;;;;0.70;0.70;;;;;;;;;;5016839;28;20587;-80
2021/10/06 03:44:01;;;;;;;0.90;0.90;;;;;;;;;;5016754;28;20210;-79
2021/10/06 03:46:28;;;;;;;1.35;1.25;;;;;;;;;;5016501;28;20226;-81
2021/10/06 03:48:56;;;;;;;1.38;0.90;;;;;;;;;;5016164;28;20576;-81
2021/10/06 03:51:23;;;;;;;1.48;1.23;;;;;;;;;;5014996;28;20206;-80
2021/10/06 03:53:51;;;;;;;1.75;1.00;;;;;;;;;;5016379;28;20194;-81
2021/10/06 03:56:18;;;;;;;1.00;0.98;;;;;;;;;;5016517;28;20583;-80
2021/10/06 03:58:49;;;;;;;0.75;0.75;;;;;;;;;;5017481;28;20191;-81
2021/10/06 04:01:16;;;;;;;1.08;1.00;;;;;;;;;;5016985;28;20198;-81
2021/10/06 04:03:44;;;;;;;1.80;1.10;;;;;;;;;;5016570;28;20638;-82
2021/10/06 04:06:11;;;;;;;1.00;0.90;;;;;;;;;;5016141;28;20199;-81
2021/10/06 04:08:39;;;;;;;2.67;1.15;;;;;;;;;;5015761;28;20233;-82
2021/10/06 04:11:07;;;;;;;1.33;1.10;;;;;;;;;;5016349;28;20262;-81
2021/10/06 04:13:34;;;;;;;1.00;1.00;;;;;;;;;;5015266;28;20207;-81
2021/10/06 04:16:03;;;;;;;1.80;1.10;;;;;;;;;;5016114;28;20199;-81
2021/10/06 04:18:30;;;;;;;0.75;0.75;;;;;;;;;;5015764;28;20265;-81
2021/10/06 04:20:58;;;;;;;2.83;1.52;;;;;;;;;;5016058;28;20673;-81
2021/10/06 04:23:25;;;;;;;1.35;1.00;;;;;;;;;;5016685;28;20567;-81
2021/10/06 04:25:53;;;;;;;0.98;0.98;;;;;;;;;;5016408;28;20272;-81
2021/10/06 04:28:20;;;;;;;0.77;0.75;;;;;;;;;;5016217;28;20265;-81
2021/10/06 04:30:48;;;;;;;1.33;0.93;;;;;;;;;;5015629;28;20600;-81
2021/10/06 04:33:17;;;;;;;1.67;0.88;;;;;;;;;;5015913;28;20191;-81
2021/10/06 04:35:44;;;;;;;9.82;3.13;;;;;;;;;;5016116;28;20197;-81
2021/10/06 04:38:12;;;;;;;1.20;1.10;;;;;;;;;;5015587;28;20229;-81
2021/10/06 04:40:40;;;;;;;2.75;1.13;;;;;;;;;;5015873;28;20278;-81
2021/10/06 04:43:11;;;;;;;2.13;1.20;;;;;;;;;;5015985;28;20193;-81
2021/10/06 04:45:39;;;;;;;1.33;1.20;;;;;;;;;;5017730;28;20187;-81
2021/10/06 04:48:07;;;;;;;1.30;1.10;;;;;;;;;;5016212;28;20234;-80
2021/10/06 04:50:36;;;;;;;1.95;1.27;;;;;;;;;;5015389;28;20187;-81
2021/10/06 04:53:05;;;;;;;2.50;1.20;;;;;;;;;;5015331;28;20191;-81
2021/10/06 04:55:32;;;;;;;1.27;1.17;;;;;;;;;;5015774;28;20179;-81
2021/10/06 04:58:02;;;;;;;0.80;0.80;;;;;;;;;;5014539;28;20608;-81
2021/10/06 05:00:29;;;;;;;1.08;1.02;;;;;;;;;;5014946;28;20213;-81
2021/10/06 05:02:58;;;;;;;1.00;1.00;;;;;;;;;;5014309;28;20641;-81
2021/10/06 05:05:26;;;;;;;1.30;1.05;;;;;;;;;;5014924;28;20203;-81
2021/10/06 05:07:55;;;;;;;1.63;1.10;;;;;;;;;;5015192;28;20222;-81
2021/10/06 05:10:22;;;;;;;0.85;0.85;;;;;;;;;;5014909;28;20203;-80
2021/10/06 05:12:50;;;;;;;1.05;0.73;;;;;;;;;;5015081;28;20294;-80
2021/10/06 05:15:17;;;;;;;0.93;0.90;;;;;;;;;;5014342;28;20198;-81
2021/10/06 05:17:45;;;;;;;1.77;1.25;;;;;;;;;;5014579;28;20239;-82
2021/10/06 05:20:12;;;;;;;1.42;0.95;;;;;;;;;;5015116;28;20195;-82
2021/10/06 05:22:40;;;;;;;3.38;1.63;;;;;;;;;;5014311;28;20653;-82
2021/10/06 05:25:10;;;;;;;1.08;0.90;;;;;;;;;;5014107;28;20294;-82
2021/10/06 05:27:37;;;;;;;2.50;1.30;;;;;;;;;;5015292;28;20230;-81
2021/10/06 05:30:07;;;;;;;0.90;0.88;;;;;;;;;;5014709;28;20209;-80
2021/10/06 05:32:35;;;;;;;1.40;1.10;;;;;;;;;;5015452;28;20184;-81
2021/10/06 05:35:03;;;;;;;2.08;1.63;;;;;;;;;;5015447;28;20250;-81
2021/10/06 05:37:30;;;;;;;1.13;1.10;;;;;;;;;;5014796;28;20237;-81
2021/10/06 05:39:58;;;;;;;1.83;1.30;;;;;;;;;;5015402;28;20684;-82
2021/10/06 05:42:27;;;;;;;2.85;1.25;;;;;;;;;;5014598;28;20202;-82
2021/10/06 05:44:54;;;;;;;1.60;1.38;;;;;;;;;;5014576;28;20211;-81
2021/10/06 05:47:22;;;;;;;0.88;0.88;;;;;;;;;;5015335;28;20230;-81
2021/10/06 05:49:50;;;;;;;1.05;1.00;;;;;;;;;;5014567;28;20282;-80
2021/10/06 05:52:17;;;;;;;1.90;1.02;;;;;;;;;;5015410;28;20226;-81
2021/10/06 05:54:45;;;;;;;1.50;1.40;;;;;;;;;;5015322;28;20179;-82
2021/10/06 05:57:12;;;;;;;1.88;1.10;;;;;;;;;;5014842;28;20261;-81
2021/10/06 05:59:41;;;;;;;1.10;1.00;;;;;;;;;;5014717;28;20691;-81
2021/10/06 06:02:09;;;;;;;2.80;1.48;;;;;;;;;;5015165;28;20207;-81
2021/10/06 06:04:36;;;;;;;1.45;1.10;;;;;;;;;;5015712;28;20655;-81
2021/10/06 06:07:05;;;;;;;1.02;1.02;;;;;;;;;;5015161;28;20238;-80
2021/10/06 06:09:33;;;;;;;1.13;1.13;;;;;;;;;;5017083;28;20751;-79
2021/10/06 06:12:01;;;;;;;1.10;1.00;;;;;;;;;;5014575;28;20211;-80
2021/10/06 06:14:30;;;;;;;1.35;1.20;;;;;;;;;;5015768;28;20193;-81
2021/10/06 06:16:59;;;;;;;2.75;1.70;;;;;;;;;;5013675;28;20319;-82
2021/10/06 06:19:26;;;;;;;2.88;2.10;;;;;;;;;;5014564;28;20321;-82
2021/10/06 06:21:54;;;;;;;3.72;1.20;;;;;;;;;;5015052;28;20205;-82
2021/10/06 06:24:21;;;;;;;2.67;2.47;;;;;;;;;;5015850;28;20191;-83
2021/10/06 06:26:49;;;;;;;1.40;1.30;;;;;;;;;;5017043;28;20223;-82
2021/10/06 06:29:16;;;;;;;1.23;1.00;;;;;;;;;;5034784;28;20189;-82
2021/10/06 06:31:44;;;;;;;1.27;1.00;;;;;;;;;;5034756;28;20198;-83
2021/10/06 06:34:13;;;;;;;1.08;0.90;;;;;;;;;;5034469;28;20237;-82
2021/10/06 06:36:40;;;;;;;3.15;1.60;;;;;;;;;;5027525;28;20225;-82
2021/10/06 06:39:08;;;;;;;1.10;1.00;;;;;;;;;;4999000;28;20255;-83
2021/10/06 06:41:35;;;;;;;1.00;1.00;;;;;;;;;;4998921;28;20200;-82
2021/10/06 06:44:03;;;;;;;0.80;0.80;;;;;;;;;;4999289;28;20648;-81
2021/10/06 06:46:31;;;;;;;1.13;1.02;;;;;;;;;;4999491;28;20180;-82
2021/10/06 06:48:58;;;;;;;3.75;1.23;;;;;;;;;;5018773;28;20671;-83
2021/10/06 06:51:27;;;;;;;1.23;1.13;;;;;;;;;;5018319;28;20195;-83
2021/10/06 06:53:55;;;;;;;1.85;1.13;;;;;;;;;;5018338;28;20203;-80
2021/10/06 06:56:23;;;;;;;1.23;1.13;;;;;;;;;;5018567;28;20282;-81
2021/10/06 06:58:51;;;;;;;2.53;1.10;;;;;;;;;;5018449;28;20646;-80
2021/10/06 07:01:18;;;;;;;3.70;1.20;;;;;;;;;;5015624;28;20576;-82
2021/10/06 07:03:46;;;;;;;0.80;0.80;;;;;;;;;;5028808;28;20255;-81
2021/10/06 07:06:13;;;;;;;1.25;1.15;;;;;;;;;;5035758;28;20195;-81
2021/10/06 07:08:47;;;;;;;1.52;1.23;;;;;;;;;;5018429;28;20219;-81
2021/10/06 07:11:14;;;;;;;1.42;0.88;;;;;;;;;;5003201;28;20279;-81
2021/10/06 07:13:42;;;;;;;0.95;0.95;;;;;;;;;;4999342;28;20207;-83
2021/10/06 07:16:09;;;;;;;2.47;1.60;;;;;;;;;;4999466;28;20184;-81
2021/10/06 07:18:37;;;;;;;0.80;0.80;;;;;;;;;;5025390;28;20240;-83
2021/10/06 07:21:04;;;;;;;2.65;2.38;;;;;;;;;;5020655;28;20199;-84
2021/10/06 07:23:32;;;;;;;2.33;1.10;;;;;;;;;;5018601;28;20196;-82
2021/10/06 07:26:01;;;;;;;1.63;1.23;;;;;;;;;;5018925;28;20607;-82
2021/10/06 07:28:28;;;;;;;1.38;1.05;;;;;;;;;;5017560;28;20636;-83
2021/10/06 07:30:56;;;;;;;1.27;1.20;;;;;;;;;;5018474;28;20202;-81
2021/10/06 07:33:24;;;;;;;1.23;1.02;;;;;;;;;;5018020;28;20274;-82
2021/10/06 07:35:52;;;;;;;0.88;0.88;;;;;;;;;;5017553;28;20183;-82
2021/10/06 07:38:20;;;;;;;3.22;1.13;;;;;;;;;;5018258;28;20223;-81
2021/10/06 07:40:47;;;;;;;0.93;0.90;;;;;;;;;;5018096;28;20183;-82
2021/10/06 07:43:16;;;;;;;1.20;1.02;;;;;;;;;;5018136;28;20214;-81
2021/10/06 07:45:45;;;;;;;2.78;1.10;;;;;;;;;;5018490;28;20198;-82
2021/10/06 07:48:13;;;;;;;1.98;1.00;;;;;;;;;;5017907;28;20705;-82
2021/10/06 07:50:40;;;;;;;0.75;0.75;;;;;;;;;;5018353;28;20656;-81
2021/10/06 07:53:08;;;;;;;2.67;2.20;;;;;;;;;;5017925;28;20203;-82
2021/10/06 07:55:35;;;;;;;2.75;1.30;;;;;;;;;;5018259;28;20209;-82
2021/10/06 07:58:02;;;;;;;0.88;0.75;;;;;;;;;;5018267;28;20291;-81
2021/10/06 08:00:31;;;;;;;1.85;1.10;;;;;;;;;;5017950;28;20230;-82
2021/10/06 08:02:59;;;;;;;1.27;0.98;;;;;;;;;;5018417;28;20195;-81
2021/10/06 08:05:26;;;;;;;1.80;0.95;;;;;;;;;;5018548;28;20202;-83
2021/10/06 08:07:54;;;;;;;2.60;1.13;;;;;;;;;;5018195;28;20234;-81
2021/10/06 08:10:21;;;;;;;1.38;1.00;;;;;;;;;;5018321;28;20194;-81
2021/10/06 08:12:49;;;;;;;3.65;1.40;;;;;;;;;;5017714;28;20196;-80
2021/10/06 08:15:16;;;;;;;1.67;1.10;;;;;;;;;;5017615;28;20199;-81
2021/10/06 08:17:45;;;;;;;2.00;0.90;;;;;;;;;;5016403;28;20234;-82
2021/10/06 08:20:12;;;;;;;2.08;1.70;;;;;;;;;;5017919;28;20305;-82
2021/10/06 08:22:40;;;;;;;0.63;0.63;;;;;;;;;;5017327;28;20203;-82
2021/10/06 08:25:09;;;;;;;1.73;1.17;;;;;;;;;;5017508;28;20203;-82
2021/10/06 08:27:36;;;;;;;2.20;1.10;;;;;;;;;;5016772;28;20230;-81
2021/10/06 08:30:05;;;;;;;1.63;0.98;;;;;;;;;;5017932;28;20188;-82
2021/10/06 08:32:33;;;;;;;1.13;0.95;;;;;;;;;;5018146;28;20214;-81
2021/10/06 08:35:02;;;;;;;1.15;0.90;;;;;;;;;;4997880;28;20705;-82
2021/10/06 08:37:29;;;;;;;1.02;1.00;;;;;;;;;;4997735;28;20223;-82
2021/10/06 08:39:57;;;;;;;0.82;0.80;;;;;;;;;;4997890;28;20231;-81
2021/10/06 08:42:24;;;;;;;1.02;0.85;;;;;;;;;;4997764;28;20210;-82
2021/10/06 08:44:52;;;;;;;1.88;0.90;;;;;;;;;;4997348;28;20692;-81
2021/10/06 08:47:21;;;;;;;1.23;0.80;;;;;;;;;;4997372;28;20219;-82
2021/10/06 08:49:48;;;;;;;0.88;0.85;;;;;;;;;;4997365;28;20685;-82
2021/10/06 08:52:17;;;;;;;1.25;0.88;;;;;;;;;;4997418;28;20191;-82
2021/10/06 08:54:45;;;;;;;2.53;1.63;;;;;;;;;;4997528;28;20191;-83
2021/10/06 08:57:16;;;;;;;1.08;0.80;;;;;;;;;;4997113;28;20227;-82
2021/10/06 08:59:43;;;;;;;1.48;1.13;;;;;;;;;;4997356;28;20299;-82
2021/10/06 09:02:12;;;;;;;1.23;1.02;;;;;;;;;;4997426;28;20657;-83
2021/10/06 09:04:41;;;;;;;2.72;1.33;;;;;;;;;;4997947;28;20212;-81
2021/10/06 09:07:09;;;;;;;1.08;0.70;;;;;;;;;;4997254;28;20224;-83
2021/10/06 09:09:39;;;;;;;2.10;0.95;;;;;;;;;;4998158;28;20184;-82
2021/10/06 09:12:12;;;;;;;1.33;0.90;;;;;;;;;;4997783;28;20283;-84
2021/10/06 09:14:44;;;;;;;1.13;1.00;;;;;;;;;;4996898;28;20203;-83
2021/10/06 09:17:14;;;;;;;1.58;0.90;;;;;;;;;;4997674;28;20246;-82
2021/10/06 09:19:44;;;;;;;2.20;1.02;;;;;;;;;;4997350;28;20250;-81
2021/10/06 09:22:18;;;;;;;0.85;0.85;;;;;;;;;;4997670;28;20196;-82
2021/10/06 09:24:55;;;;;;;1.05;0.90;;;;;;;;;;4997240;28;20194;-82
2021/10/06 09:27:24;;;;;;;1.17;0.90;;;;;;;;;;4996999;28;20227;-82
2021/10/06 09:29:54;;;;;;;1.27;0.80;;;;;;;;;;4996957;28;20184;-82
2021/10/06 09:32:24;;;;;;;3.63;0.80;;;;;;;;;;4996626;28;20254;-81
2021/10/06 09:35:16;;;;;;;2.20;0.75;;;;;;;;;;4996879;28;20622;-82
2021/10/06 09:37:46;;;;;;;1.42;0.80;;;;;;;;;;4978053;28;20231;-82
2021/10/06 09:40:18;;;;;;;1.67;1.35;;;;;;;;;;4997083;28;20212;-82
2021/10/06 09:42:48;;;;;;;0.85;0.82;;;;;;;;;;4996416;28;20208;-82
2021/10/06 09:45:24;;;;;;;1.15;0.80;;;;;;;;;;4997651;28;20204;-82
2021/10/06 09:48:10;;;;;;;2.33;0.80;;;;;;;;;;4997367;28;20587;-82
2021/10/06 09:50:41;;;;;;;2.53;1.05;;;;;;;;;;4996581;28;20619;-82
2021/10/06 09:53:12;;;;;;;1.35;1.10;;;;;;;;;;4996576;28;20188;-82
2021/10/06 09:55:43;;;;;;;1.60;0.95;;;;;;;;;;4996716;28;20223;-82
2021/10/06 09:58:12;;;;;;;1.25;0.80;;;;;;;;;;4996976;28;20234;-82
2021/10/06 10:00:41;;;;;;;1.13;0.80;;;;;;;;;;4996294;28;20224;-82
2021/10/06 10:03:09;;;;;;;1.42;1.02;;;;;;;;;;4996840;28;20669;-82
2021/10/06 10:05:39;;;;;;;0.90;0.70;;;;;;;;;;4997820;28;20203;-81
2021/10/06 10:08:07;;;;;;;1.17;1.05;;;;;;;;;;4996793;28;20650;-82
2021/10/06 10:10:36;;;;;;;0.95;0.90;;;;;;;;;;4997052;28;20195;-82
2021/10/06 10:13:05;;;;;;;1.55;1.20;;;;;;;;;;4996011;28;20230;-83
2021/10/06 10:15:33;;;;;;;1.40;1.30;;;;;;;;;;4996363;28;20200;-83
2021/10/06 10:18:04;;;;;;;0.75;0.70;;;;;;;;;;4996917;28;20227;-82
2021/10/06 10:20:35;;;;;;;1.20;0.82;;;;;;;;;;4996871;28;20691;-82
2021/10/06 10:23:05;;;;;;;0.80;0.80;;;;;;;;;;4997539;28;20192;-81
2021/10/06 10:25:40;;;;;;;0.70;0.70;;;;;;;;;;4994890;28;20196;-81
2021/10/06 10:28:12;;;;;;;2.05;1.52;;;;;;;;;;4997741;28;20477;-83
2021/10/06 10:30:52;;;;;;;1.20;1.10;;;;;;;;;;4997172;28;20210;-82
2021/10/06 10:33:41;;;;;;;0.50;0.50;;;;;;;;;;5001249;28;20199;-83
2021/10/06 10:36:48;;;;;;;0.63;0.60;;;;;;;;;;5005373;28;20207;-82
2021/10/06 10:39:51;;;;;;;0.57;0.57;;;;;;;;;;5014850;28;20218;-83
2021/10/06 10:42:19;;;;;;;1.67;1.48;;;;;;;;;;5015654;28;20203;-83
2021/10/06 10:44:48;;;;;;;0.80;0.80;;;;;;;;;;5015653;28;20210;-83
2021/10/06 10:47:15;;;;;;;1.58;0.90;;;;;;;;;;5015439;28;20230;-83
2021/10/06 10:49:45;;;;;;;0.98;0.50;;;;;;;;;;5015521;28;20214;-82
2021/10/06 10:52:13;;;;;;;1.50;1.40;;;;;;;;;;5016241;28;20192;-82
2021/10/06 10:54:43;;;;;;;1.77;0.80;;;;;;;;;;5016702;28;20207;-83
2021/10/06 10:57:21;;;;;;;1.23;0.88;;;;;;;;;;5017698;28;20226;-83
2021/10/06 10:59:52;;;;;;;1.42;1.25;;;;;;;;;;5015567;28;20203;-82
2021/10/06 11:02:28;;;;;;;1.65;0.95;;;;;;;;;;5016967;28;20214;-82
2021/10/06 11:04:58;;;;;;;2.17;1.25;;;;;;;;;;5017086;28;20199;-82
2021/10/06 11:07:26;;;;;;;1.20;1.05;;;;;;;;;;5016487;28;20824;-82
2021/10/06 11:09:57;;;;;;;3.47;1.10;;;;;;;;;;5015222;28;20184;-81
2021/10/06 11:12:40;;;;;;;1.60;0.90;;;;;;;;;;5014852;28;20203;-82
2021/10/06 11:15:36;;;;;;;0.70;0.70;;;;;;;;;;5014073;28;20277;-82
2021/10/06 11:18:27;;;;;;;0.85;0.63;;;;;;;;;;5005189;28;20239;-82
2021/10/06 11:21:06;;;;;;;0.80;0.80;;;;;;;;;;5014144;28;20211;-82
2021/10/06 11:23:56;;;;;;;0.80;0.80;;;;;;;;;;5016049;28;20183;-82
2021/10/06 11:26:37;;;;;;;0.80;0.80;;;;;;;;;;5018228;28;20242;-82
2021/10/06 11:29:08;;;;;;;1.13;0.80;;;;;;;;;;5018883;28;20195;-81
2021/10/06 11:31:38;;;;;;;1.67;0.65;;;;;;;;;;5018150;28;20195;-82
2021/10/06 11:34:16;;;;;;;0.80;0.60;;;;;;;;;;5017738;28;20214;-82
2021/10/06 11:36:51;;;;;;;0.43;0.40;;;;;;;;;;5017693;28;20222;-82
2021/10/06 11:39:19;;;;;;;0.80;0.80;;;;;;;;;;5018055;28;20193;-81
2021/10/06 11:41:48;;;;;;;0.85;0.70;;;;;;;;;;5017733;28;20215;-82
2021/10/06 11:44:17;;;;;;;1.00;0.80;;;;;;;;;;5018072;28;20186;-81
2021/10/06 11:46:46;;;;;;;0.85;0.85;;;;;;;;;;5018090;28;20229;-82
2021/10/06 11:49:14;;;;;;;0.73;0.57;;;;;;;;;;5016864;28;20203;-83
2021/10/06 11:51:48;;;;;;;0.98;0.90;;;;;;;;;;5017944;28;20195;-81
2021/10/06 11:54:17;;;;;;;0.52;0.52;;;;;;;;;;5016644;28;20187;-82
2021/10/06 11:56:47;;;;;;;1.55;0.85;;;;;;;;;;5017124;28;20219;-81
2021/10/06 11:59:16;;;;;;;0.50;0.50;;;;;;;;;;5013585;28;20239;-81
2021/10/06 12:01:54;;;;;;;1.08;0.80;;;;;;;;;;4998027;28;20222;-83
2021/10/06 12:04:24;;;;;;;0.55;0.52;;;;;;;;;;4997910;28;20176;-81
2021/10/06 12:06:59;;;;;;;0.52;0.52;;;;;;;;;;4997323;28;20238;-82
2021/10/06 12:09:27;;;;;;;1.38;0.52;;;;;;;;;;4998440;28;20892;-82
2021/10/06 12:11:55;;;;;;;0.50;0.50;;;;;;;;;;4996714;28;20246;-82
2021/10/06 12:14:26;;;;;;;0.68;0.52;;;;;;;;;;4997215;28;20204;-82
2021/10/06 12:17:13;;;;;;;0.52;0.52;;;;;;;;;;4997906;28;20228;-82
2021/10/06 12:19:42;;;;;;;0.40;0.40;;;;;;;;;;4997181;28;20207;-83
2021/10/06 12:22:10;;;;;;;0.65;0.50;;;;;;;;;;4998160;28;20208;-82
2021/10/06 12:24:41;;;;;;;0.43;0.43;;;;;;;;;;4998125;28;20207;-82
2021/10/06 12:27:08;;;;;;;0.60;0.60;;;;;;;;;;4997448;28;20300;-82
2021/10/06 12:29:36;;;;;;;0.60;0.60;;;;;;;;;;4998235;28;20184;-82
2021/10/06 12:32:17;;;;;;;0.40;0.40;;;;;;;;;;4998239;28;20231;-82
2021/10/06 12:34:46;;;;;;;0.60;0.60;;;;;;;;;;4995915;28;20202;-82
2021/10/06 12:37:15;;;;;;;0.93;0.93;;;;;;;;;;4997979;28;20228;-81
2021/10/06 12:39:43;;;;;;;0.93;0.60;;;;;;;;;;5027192;28;20197;-80
2021/10/06 12:42:11;;;;;;;0.60;0.60;;;;;;;;;;5035658;28;20226;-80
2021/10/06 12:44:45;;;;;;;1.63;0.68;;;;;;;;;;5026807;28;20199;-80
2021/10/06 12:47:18;;;;;;;0.77;0.60;;;;;;;;;;5015760;28;20226;-81
2021/10/06 12:49:52;;;;;;;0.35;0.35;;;;;;;;;;5016525;28;20579;-81
2021/10/06 12:52:28;;;;;;;1.95;0.43;;;;;;;;;;5017919;28;20286;-80
2021/10/06 12:55:10;;;;;;;0.22;0.22;;;;;;;;;;5023953;28;20194;-80
2021/10/06 12:57:40;;;;;;;0.60;0.60;;;;;;;;;;5014025;28;20210;-80
2021/10/06 13:00:21;;;;;;;1.00;0.82;;;;;;;;;;5013655;28;20195;-80
2021/10/06 13:02:52;;;;;;;0.60;0.60;;;;;;;;;;5007518;28;20564;-80
2021/10/06 13:05:19;;;;;;;0.40;0.40;;;;;;;;;;5034506;28;20660;-80
2021/10/06 13:07:47;;;;;;;1.00;0.50;;;;;;;;;;5033817;28;20229;-79
2021/10/06 13:10:15;;;;;;;0.88;0.57;;;;;;;;;;5034628;28;20183;-80
2021/10/06 13:12:42;;;;;;;0.47;0.47;;;;;;;;;;5032137;28;20205;-80
2021/10/06 13:15:10;;;;;;;0.63;0.63;;;;;;;;;;5014544;28;20203;-80
2021/10/06 13:17:37;;;;;;;0.80;0.65;;;;;;;;;;5014566;28;20242;-81
2021/10/06 13:20:08;;;;;;;0.30;0.25;;;;;;;;;;5014263;28;20210;-81
2021/10/06 13:22:35;;;;;;;0.52;0.52;;;;;;;;;;5014354;28;20218;-80
2021/10/06 13:25:03;;;;;;;0.30;0.30;;;;;;;;;;5014387;28;20190;-80
2021/10/06 13:27:30;;;;;;;0.80;0.43;;;;;;;;;;5014448;28;20259;-80
2021/10/06 13:29:58;;;;;;;1.35;0.88;;;;;;;;;;5014681;28;20191;-80
2021/10/06 13:32:25;;;;;;;0.88;0.50;;;;;;;;;;5015049;28;20183;-79
2021/10/06 13:34:54;;;;;;;0.40;0.40;;;;;;;;;;5014281;28;20304;-80
2021/10/06 13:37:22;;;;;;;0.50;0.50;;;;;;;;;;5014000;28;20223;-80
2021/10/06 13:39:50;;;;;;;0.68;0.52;;;;;;;;;;5014129;28;20187;-79
2021/10/06 13:42:18;;;;;;;0.63;0.43;;;;;;;;;;5014017;28;20223;-80
2021/10/06 13:44:45;;;;;;;0.85;0.50;;;;;;;;;;5016339;28;20187;-80
2021/10/06 13:47:13;;;;;;;0.70;0.52;;;;;;;;;;5015935;28;20227;-81
2021/10/06 13:49:40;;;;;;;1.05;0.57;;;;;;;;;;5017064;28;20207;-80
2021/10/06 13:52:07;;;;;;;0.70;0.70;;;;;;;;;;5016456;28;20203;-80
2021/10/06 13:54:36;;;;;;;0.70;0.60;;;;;;;;;;5016200;28;20291;-80
2021/10/06 13:57:04;;;;;;;1.10;1.00;;;;;;;;;;5016597;28;20229;-80
2021/10/06 13:59:32;;;;;;;1.02;0.73;;;;;;;;;;4996276;28;20211;-79
2021/10/06 14:01:59;;;;;;;0.50;0.50;;;;;;;;;;4995734;28;20207;-79
2021/10/06 14:04:27;;;;;;;1.27;0.60;;;;;;;;;;5017956;28;20198;-80
2021/10/06 14:06:55;;;;;;;0.70;0.68;;;;;;;;;;5011034;28;20219;-80
2021/10/06 14:09:22;;;;;;;1.10;0.70;;;;;;;;;;5013897;28;20210;-79
2021/10/06 14:11:51;;;;;;;0.73;0.73;;;;;;;;;;5006940;28;20205;-80
2021/10/06 14:14:18;;;;;;;0.57;0.57;;;;;;;;;;5009887;28;20210;-79
2021/10/06 14:16:46;;;;;;;0.60;0.60;;;;;;;;;;5008416;28;20227;-79
2021/10/06 14:19:13;;;;;;;1.88;0.77;;;;;;;;;;4998025;28;20207;-80
2021/10/06 14:21:40;;;;;;;0.60;0.60;;;;;;;;;;5003081;28;20263;-80
2021/10/06 14:24:08;;;;;;;0.50;0.50;;;;;;;;;;4998346;28;20227;-80
2021/10/06 14:26:36;;;;;;;0.70;0.70;;;;;;;;;;5005264;28;20206;-80
2021/10/06 14:29:04;;;;;;;0.55;0.52;;;;;;;;;;5013867;28;20202;-81
2021/10/06 14:31:32;;;;;;;1.92;0.60;;;;;;;;;;5014027;28;20661;-81
2021/10/06 14:34:00;;;;;;;0.47;0.47;;;;;;;;;;5013919;28;20676;-80
2021/10/06 14:36:30;;;;;;;0.55;0.55;;;;;;;;;;5001783;28;20188;-80
2021/10/06 14:38:57;;;;;;;0.90;0.80;;;;;;;;;;5031070;28;20202;-79
2021/10/06 14:41:25;;;;;;;0.50;0.50;;;;;;;;;;5033739;28;20197;-80
2021/10/06 14:43:52;;;;;;;1.92;0.70;;;;;;;;;;5033155;28;20222;-80
2021/10/06 14:46:21;;;;;;;1.25;0.95;;;;;;;;;;5033380;28;20684;-81
2021/10/06 14:48:49;;;;;;;0.70;0.70;;;;;;;;;;5034223;28;20225;-81
2021/10/06 14:51:17;;;;;;;0.45;0.45;;;;;;;;;;5031127;28;20201;-79
2021/10/06 14:53:45;;;;;;;0.70;0.70;;;;;;;;;;5022994;28;20194;-80
2021/10/06 14:56:12;;;;;;;0.55;0.40;;;;;;;;;;5014195;28;20206;-80